sensor_id;sensor_type;location;lat;lon;timestamp;pressure;altitude;pressure_sealevel;temperature;humidity
76496;BME280;65329;52.544;4.662;2022-12-22T00:00:56;68015.06;;;11.41;0.00
76496;BME280;65329;52.544;4.662;2022-12-22T00:03:41;67989.56;;;11.40;0.00
76496;BME280;65329;52.544;4.662;2022-12-22T00:06:27;67988.59;;;11.41;0.00
76496;BME280;65329;52.544;4.662;2022-12-22T00:09:12;67936.00;;;11.40;0.00
76496;BME280;65329;52.544;4.662;2022-12-22T00:11:57;67976.59;;;11.40;0.00
76496;BME280;65329;52.544;4.662;2022-12-22T00:14:42;67950.69;;;11.41;0.00
76496;BME280;65329;52.544;4.662;2022-12-22T00:17:29;67957.09;;;11.40;0.00
76496;BME280;65329;52.544;4.662;2022-12-22T00:20:18;67942.00;;;11.41;0.00
76496;BME280;65329;52.544;4.662;2022-12-22T00:23:03;67984.72;;;11.40;0.00
76496;BME280;65329;52.544;4.662;2022-12-22T00:25:49;67985.88;;;11.41;0.00
76496;BME280;65329;52.544;4.662;2022-12-22T00:28:34;67981.63;;;11.42;0.00
76496;BME280;65329;52.544;4.662;2022-12-22T00:31:21;67951.69;;;11.40;0.00
76496;BME280;65329;52.544;4.662;2022-12-22T00:34:19;67977.34;;;11.43;0.00
76496;BME280;65329;52.544;4.662;2022-12-22T00:37:10;68009.66;;;11.41;0.00
76496;BME280;65329;52.544;4.662;2022-12-22T00:39:55;67971.59;;;11.38;0.00
76496;BME280;65329;52.544;4.662;2022-12-22T00:42:41;68001.53;;;11.41;0.00
76496;BME280;65329;52.544;4.662;2022-12-22T00:45:27;67953.22;;;11.39;0.00
76496;BME280;65329;52.544;4.662;2022-12-22T00:48:21;67992.44;;;11.42;0.00
76496;BME280;65329;52.544;4.662;2022-12-22T00:51:09;68006.38;;;11.40;0.00
76496;BME280;65329;52.544;4.662;2022-12-22T00:53:55;67983.56;;;11.39;0.00
76496;BME280;65329;52.544;4.662;2022-12-22T00:56:40;67974.47;;;11.41;0.00
76496;BME280;65329;52.544;4.662;2022-12-22T00:59:26;67955.38;;;11.38;0.00
76496;BME280;65329;52.544;4.662;2022-12-22T01:02:12;67961.34;;;11.39;0.00
76496;BME280;65329;52.544;4.662;2022-12-22T01:04:57;67963.88;;;11.36;0.00
76496;BME280;65329;52.544;4.662;2022-12-22T01:07:42;67984.72;;;11.40;0.00
76496;BME280;65329;52.544;4.662;2022-12-22T01:10:27;67998.66;;;11.38;0.00
76496;BME280;65329;52.544;4.662;2022-12-22T01:13:14;67949.38;;;11.38;0.00
76496;BME280;65329;52.544;4.662;2022-12-22T01:15:59;68012.19;;;11.38;0.00
76496;BME280;65329;52.544;4.662;2022-12-22T01:18:45;67990.13;;;11.40;0.00
76496;BME280;65329;52.544;4.662;2022-12-22T01:21:30;67983.56;;;11.39;0.00
76496;BME280;65329;52.544;4.662;2022-12-22T01:24:17;67980.13;;;11.36;0.00
76496;BME280;65329;52.544;4.662;2022-12-22T01:27:03;67979.53;;;11.36;0.00
76496;BME280;65329;52.544;4.662;2022-12-22T01:29:48;68019.16;;;11.37;0.00
76496;BME280;65329;52.544;4.662;2022-12-22T01:32:33;67989.22;;;11.35;0.00
76496;BME280;65329;52.544;4.662;2022-12-22T01:35:25;67963.88;;;11.36;0.00
76496;BME280;65329;52.544;4.662;2022-12-22T01:38:10;68002.91;;;11.37;0.00
76496;BME280;65329;52.544;4.662;2022-12-22T01:40:56;68012.59;;;11.36;0.00
76496;BME280;65329;52.544;4.662;2022-12-22T01:43:42;67977.41;;;11.36;0.00
76496;BME280;65329;52.544;4.662;2022-12-22T01:46:31;67996.34;;;11.36;0.00
76496;BME280;65329;52.544;4.662;2022-12-22T01:49:40;67944.94;;;11.36;0.00
76496;BME280;65329;52.544;4.662;2022-12-22T01:52:32;67965.03;;;11.37;0.00
76496;BME280;65329;52.544;4.662;2022-12-22T01:55:20;67953.63;;;11.37;0.00
76496;BME280;65329;52.544;4.662;2022-12-22T01:58:15;67998.66;;;11.38;0.00
76496;BME280;65329;52.544;4.662;2022-12-22T02:01:04;67973.56;;;11.35;0.00
76496;BME280;65329;52.544;4.662;2022-12-22T02:03:49;67951.31;;;11.35;0.00
76496;BME280;65329;52.544;4.662;2022-12-22T02:06:38;67959.03;;;11.37;0.00
76496;BME280;65329;52.544;4.662;2022-12-22T02:09:50;67970.44;;;11.37;0.00
76496;BME280;65329;52.544;4.662;2022-12-22T02:12:53;67979.13;;;11.38;0.00
76496;BME280;65329;52.544;4.662;2022-12-22T02:15:50;67965.03;;;11.37;0.00
76496;BME280;65329;52.544;4.662;2022-12-22T02:18:51;67967.72;;;11.37;0.00
76496;BME280;65329;52.544;4.662;2022-12-22T02:24:57;67918.25;;;11.34;0.00
76496;BME280;65329;52.544;4.662;2022-12-22T02:27:45;68007.19;;;11.36;0.00
76496;BME280;65329;52.544;4.662;2022-12-22T02:30:32;67994.03;;;11.34;0.00
76496;BME280;65329;52.544;4.662;2022-12-22T02:33:19;67967.94;;;11.33;0.00
76496;BME280;65329;52.544;4.662;2022-12-22T02:49:00;67966.22;;;11.31;0.00
76496;BME280;65329;52.544;4.662;2022-12-22T02:51:57;68042.41;;;11.29;0.00
76496;BME280;65329;52.544;4.662;2022-12-22T02:54:46;67985.16;;;11.31;0.00
76496;BME280;65329;52.544;4.662;2022-12-22T02:57:32;67972.03;;;11.29;0.00
76496;BME280;65329;52.544;4.662;2022-12-22T03:00:18;67942.28;;;11.29;0.00
76496;BME280;65329;52.544;4.662;2022-12-22T03:03:03;67954.66;;;11.28;0.00
76496;BME280;65329;52.544;4.662;2022-12-22T03:05:49;67993.53;;;11.27;0.00
76496;BME280;65329;52.544;4.662;2022-12-22T03:08:34;67973.59;;;11.28;0.00
76496;BME280;65329;52.544;4.662;2022-12-22T03:11:20;67978.44;;;11.28;0.00
76496;BME280;65329;52.544;4.662;2022-12-22T03:14:05;67964.31;;;11.27;0.00
76496;BME280;65329;52.544;4.662;2022-12-22T03:16:50;67948.06;;;11.27;0.00
76496;BME280;65329;52.544;4.662;2022-12-22T03:19:35;67939.41;;;11.27;0.00
76496;BME280;65329;52.544;4.662;2022-12-22T03:22:20;67968.59;;;11.26;0.00
76496;BME280;65329;52.544;4.662;2022-12-22T03:25:06;67999.31;;;11.25;0.00
76496;BME280;65329;52.544;4.662;2022-12-22T03:27:51;67928.38;;;11.24;0.00
76496;BME280;65329;52.544;4.662;2022-12-22T03:30:18;67982.50;;;11.24;0.00
76496;BME280;65329;52.544;4.662;2022-12-22T03:32:45;67962.81;;;11.21;0.00
76496;BME280;65329;52.544;4.662;2022-12-22T03:35:12;67962.81;;;11.21;0.00
76496;BME280;65329;52.544;4.662;2022-12-22T03:37:38;67939.44;;;11.20;0.00
76496;BME280;65329;52.544;4.662;2022-12-22T03:40:06;67983.31;;;11.20;0.00
76496;BME280;65329;52.544;4.662;2022-12-22T03:42:32;67962.47;;;11.16;0.00
76496;BME280;65329;52.544;4.662;2022-12-22T03:45:17;67976.97;;;11.15;0.00
76496;BME280;65329;52.544;4.662;2022-12-22T03:48:02;67974.66;;;11.13;0.00
76496;BME280;65329;52.544;4.662;2022-12-22T03:50:29;67954.38;;;11.09;0.00
76496;BME280;65329;52.544;4.662;2022-12-22T03:52:56;67916.91;;;11.07;0.00
76496;BME280;65329;52.544;4.662;2022-12-22T03:55:22;67941.81;;;11.08;0.00
76496;BME280;65329;52.544;4.662;2022-12-22T03:57:49;67935.09;;;11.04;0.00
76496;BME280;65329;52.544;4.662;2022-12-22T04:00:16;67933.91;;;11.03;0.00
76496;BME280;65329;52.544;4.662;2022-12-22T04:02:42;67981.47;;;11.02;0.00
76496;BME280;65329;52.544;4.662;2022-12-22T04:05:10;67893.75;;;11.01;0.00
76496;BME280;65329;52.544;4.662;2022-12-22T04:07:36;67960.78;;;11.01;0.00
76496;BME280;65329;52.544;4.662;2022-12-22T04:13:26;67931.63;;;11.01;0.00
76496;BME280;65329;52.544;4.662;2022-12-22T04:15:53;67939.31;;;11.03;0.00
76496;BME280;65329;52.544;4.662;2022-12-22T04:18:19;67942.03;;;11.03;0.00
76496;BME280;65329;52.544;4.662;2022-12-22T04:20:47;67940.50;;;11.04;0.00
76496;BME280;65329;52.544;4.662;2022-12-22T04:23:14;67928.13;;;11.05;0.00
76496;BME280;65329;52.544;4.662;2022-12-22T04:25:40;67924.25;;;11.04;0.00
76496;BME280;65329;52.544;4.662;2022-12-22T04:28:07;67928.91;;;11.01;0.00
76496;BME280;65329;52.544;4.662;2022-12-22T04:30:33;67956.53;;;11.02;0.00
76496;BME280;65329;52.544;4.662;2022-12-22T04:33:00;67959.66;;;11.00;0.00
76496;BME280;65329;52.544;4.662;2022-12-22T04:35:27;67935.88;;;11.00;0.00
76496;BME280;65329;52.544;4.662;2022-12-22T04:37:53;67963.31;;;10.98;0.00
76496;BME280;65329;52.544;4.662;2022-12-22T04:40:20;67940.94;;;10.95;0.00
76496;BME280;65329;52.544;4.662;2022-12-22T04:42:47;67904.25;;;10.89;0.00
76496;BME280;65329;52.544;4.662;2022-12-22T04:45:13;67919.72;;;10.86;0.00
76496;BME280;65329;52.544;4.662;2022-12-22T04:47:40;67934.03;;;10.82;0.00
76496;BME280;65329;52.544;4.662;2022-12-22T04:50:07;67916.28;;;10.83;0.00
76496;BME280;65329;52.544;4.662;2022-12-22T04:52:33;67872.06;;;10.78;0.00
76496;BME280;65329;52.544;4.662;2022-12-22T04:55:00;67900.06;;;10.76;0.00
76496;BME280;65329;52.544;4.662;2022-12-22T04:57:27;67931.75;;;10.73;0.00
76496;BME280;65329;52.544;4.662;2022-12-22T04:59:53;67943.56;;;10.72;0.00
76496;BME280;65329;52.544;4.662;2022-12-22T05:02:20;67909.00;;;10.72;0.00
76496;BME280;65329;52.544;4.662;2022-12-22T05:04:47;67899.50;;;10.76;0.00
76496;BME280;65329;52.544;4.662;2022-12-22T05:07:14;67935.63;;;10.74;0.00
76496;BME280;65329;52.544;4.662;2022-12-22T05:09:40;67897.78;;;10.74;0.00
76496;BME280;65329;52.544;4.662;2022-12-22T05:12:07;67933.09;;;10.77;0.00
76496;BME280;65329;52.544;4.662;2022-12-22T05:14:52;67900.06;;;10.76;0.00
76496;BME280;65329;52.544;4.662;2022-12-22T05:17:19;67909.75;;;10.75;0.00
76496;BME280;65329;52.544;4.662;2022-12-22T05:19:45;67938.34;;;10.74;0.00
76496;BME280;65329;52.544;4.662;2022-12-22T05:22:12;67893.91;;;10.73;0.00
76496;BME280;65329;52.544;4.662;2022-12-22T05:24:39;67894.88;;;10.72;0.00
76496;BME280;65329;52.544;4.662;2022-12-22T05:27:05;67882.34;;;10.70;0.00
76496;BME280;65329;52.544;4.662;2022-12-22T05:29:32;67888.34;;;10.71;0.00
76496;BME280;65329;52.544;4.662;2022-12-22T05:31:58;67937.97;;;10.69;0.00
76496;BME280;65329;52.544;4.662;2022-12-22T05:34:25;67935.25;;;10.69;0.00
76496;BME280;65329;52.544;4.662;2022-12-22T05:36:52;67925.03;;;10.70;0.00
76496;BME280;65329;52.544;4.662;2022-12-22T05:39:18;67925.59;;;10.70;0.00
76496;BME280;65329;52.544;4.662;2022-12-22T05:41:45;67903.97;;;10.70;0.00
76496;BME280;65329;52.544;4.662;2022-12-22T05:44:12;67929.06;;;10.73;0.00
76496;BME280;65329;52.544;4.662;2022-12-22T05:46:38;67941.81;;;10.70;0.00
76496;BME280;65329;52.544;4.662;2022-12-22T05:49:05;67878.66;;;10.72;0.00
76496;BME280;65329;52.544;4.662;2022-12-22T05:51:31;67882.94;;;10.71;0.00
76496;BME280;65329;52.544;4.662;2022-12-22T05:53:58;67924.44;;;10.69;0.00
76496;BME280;65329;52.544;4.662;2022-12-22T05:56:25;67904.94;;;10.69;0.00
76496;BME280;65329;52.544;4.662;2022-12-22T05:58:51;67923.31;;;10.68;0.00
76496;BME280;65329;52.544;4.662;2022-12-22T06:01:18;67885.47;;;10.68;0.00
76496;BME280;65329;52.544;4.662;2022-12-22T06:03:44;67921.00;;;10.66;0.00
76496;BME280;65329;52.544;4.662;2022-12-22T06:06:11;67886.22;;;10.64;0.00
76496;BME280;65329;52.544;4.662;2022-12-22T06:08:38;67905.00;;;10.62;0.00
76496;BME280;65329;52.544;4.662;2022-12-22T06:11:05;67908.06;;;10.60;0.00
76496;BME280;65329;52.544;4.662;2022-12-22T06:13:31;67883.56;;;10.57;0.00
76496;BME280;65329;52.544;4.662;2022-12-22T06:15:58;67877.41;;;10.54;0.00
76496;BME280;65329;52.544;4.662;2022-12-22T06:18:24;67859.88;;;10.51;0.00
76496;BME280;65329;52.544;4.662;2022-12-22T06:20:51;67897.13;;;10.50;0.00
76496;BME280;65329;52.544;4.662;2022-12-22T06:23:19;67869.34;;;10.47;0.00
76496;BME280;65329;52.544;4.662;2022-12-22T06:25:57;67890.22;;;10.44;0.00
76496;BME280;65329;52.544;4.662;2022-12-22T06:28:24;67880.19;;;10.40;0.00
76496;BME280;65329;52.544;4.662;2022-12-22T06:30:51;67889.84;;;10.39;0.00
76496;BME280;65329;52.544;4.662;2022-12-22T06:33:18;67900.88;;;10.35;0.00
76496;BME280;65329;52.544;4.662;2022-12-22T06:35:45;67893.72;;;10.33;0.00
76496;BME280;65329;52.544;4.662;2022-12-22T06:38:22;67830.25;;;10.30;0.00
76496;BME280;65329;52.544;4.662;2022-12-22T06:40:49;67830.50;;;10.25;0.00
76496;BME280;65329;52.544;4.662;2022-12-22T06:43:15;67884.91;;;10.23;0.00
76496;BME280;65329;52.544;4.662;2022-12-22T06:45:42;67837.84;;;10.22;0.00
76496;BME280;65329;52.544;4.662;2022-12-22T06:48:11;67829.53;;;10.20;0.00
76496;BME280;65329;52.544;4.662;2022-12-22T06:50:38;67872.97;;;10.15;0.00
76496;BME280;65329;52.544;4.662;2022-12-22T06:53:06;67896.53;;;10.12;0.00
76496;BME280;65329;52.544;4.662;2022-12-22T06:55:34;67837.09;;;10.12;0.00
76496;BME280;65329;52.544;4.662;2022-12-22T06:58:00;67834.81;;;10.10;0.00
76496;BME280;65329;52.544;4.662;2022-12-22T07:00:27;67846.00;;;10.08;0.00
76496;BME280;65329;52.544;4.662;2022-12-22T07:02:54;67847.94;;;10.05;0.00
76496;BME280;65329;52.544;4.662;2022-12-22T07:05:21;67860.84;;;10.05;0.00
76496;BME280;65329;52.544;4.662;2022-12-22T07:07:51;67854.69;;;10.02;0.00
76496;BME280;65329;52.544;4.662;2022-12-22T07:10:18;67805.09;;;10.03;0.00
76496;BME280;65329;52.544;4.662;2022-12-22T07:13:05;67887.50;;;10.00;0.00
76496;BME280;65329;52.544;4.662;2022-12-22T07:15:45;67828.09;;;10.00;0.00
76496;BME280;65329;52.544;4.662;2022-12-22T07:18:16;67883.25;;;10.01;0.00
76496;BME280;65329;52.544;4.662;2022-12-22T07:20:42;67876.13;;;9.99;0.00
76496;BME280;65329;52.544;4.662;2022-12-22T07:23:10;67907.38;;;9.98;0.00
76496;BME280;65329;52.544;4.662;2022-12-22T07:25:37;67855.88;;;9.96;0.00
76496;BME280;65329;52.544;4.662;2022-12-22T07:28:05;67900.03;;;9.94;0.00
76496;BME280;65329;52.544;4.662;2022-12-22T07:30:32;67902.75;;;9.94;0.00
76496;BME280;65329;52.544;4.662;2022-12-22T07:32:59;67956.75;;;9.94;0.00
76496;BME280;65329;52.544;4.662;2022-12-22T07:35:26;67963.13;;;9.93;0.00
76496;BME280;65329;52.544;4.662;2022-12-22T07:37:52;68008.44;;;9.92;0.00
76496;BME280;65329;52.544;4.662;2022-12-22T07:40:19;67991.09;;;9.91;0.00
76496;BME280;65329;52.544;4.662;2022-12-22T07:42:45;68042.78;;;9.89;0.00
76496;BME280;65329;52.544;4.662;2022-12-22T07:45:16;68065.91;;;9.88;0.00
76496;BME280;65329;52.544;4.662;2022-12-22T07:47:43;68084.25;;;9.88;0.00
76496;BME280;65329;52.544;4.662;2022-12-22T07:50:14;68102.94;;;9.85;0.00
76496;BME280;65329;52.544;4.662;2022-12-22T07:52:51;68142.88;;;9.85;0.00
76496;BME280;65329;52.544;4.662;2022-12-22T07:55:18;68134.78;;;9.85;0.00
76496;BME280;65329;52.544;4.662;2022-12-22T07:57:45;68274.59;;;9.84;0.00
76496;BME280;65329;52.544;4.662;2022-12-22T08:00:13;68299.25;;;9.82;0.00
76496;BME280;65329;52.544;4.662;2022-12-22T08:02:41;68493.66;;;9.82;0.00
76496;BME280;65329;52.544;4.662;2022-12-22T08:05:08;68816.50;;;9.81;0.00
76496;BME280;65329;52.544;4.662;2022-12-22T08:07:36;68840.81;;;9.81;0.00
76496;BME280;65329;52.544;4.662;2022-12-22T08:10:03;68908.31;;;9.81;0.00
76496;BME280;65329;52.544;4.662;2022-12-22T08:12:30;69021.72;;;9.81;0.00
76496;BME280;65329;52.544;4.662;2022-12-22T08:14:58;69396.75;;;9.83;0.00
76496;BME280;65329;52.544;4.662;2022-12-22T08:17:25;69428.56;;;9.83;0.00
76496;BME280;65329;52.544;4.662;2022-12-22T08:19:53;69558.81;;;9.83;0.00
76496;BME280;65329;52.544;4.662;2022-12-22T08:22:21;69725.91;;;9.85;0.00
76496;BME280;65329;52.544;4.662;2022-12-22T08:24:52;69885.81;;;9.90;0.00
76496;BME280;65329;52.544;4.662;2022-12-22T08:27:57;69966.84;;;9.90;0.00
76496;BME280;65329;52.544;4.662;2022-12-22T08:30:17;69870.16;;;9.95;0.00
76496;BME280;65329;52.544;4.662;2022-12-22T08:32:46;69705.84;;;10.00;0.00
76496;BME280;65329;52.544;4.662;2022-12-22T08:35:14;69486.34;;;10.04;0.00
76496;BME280;65329;52.544;4.662;2022-12-22T08:37:43;69176.97;;;10.12;0.00
76496;BME280;65329;52.544;4.662;2022-12-22T08:40:14;68703.09;;;10.18;0.00
76496;BME280;65329;52.544;4.662;2022-12-22T08:42:42;64183.41;;;10.58;0.00
76496;BME280;65329;52.544;4.662;2022-12-22T08:45:09;64059.94;;;12.21;0.00
76496;BME280;65329;52.544;4.662;2022-12-22T08:47:37;65596.84;;;11.81;0.00
76496;BME280;65329;52.544;4.662;2022-12-22T08:50:04;65215.13;;;11.58;0.00
76496;BME280;65329;52.544;4.662;2022-12-22T08:52:31;64520.06;;;11.69;0.00
76496;BME280;65329;52.544;4.662;2022-12-22T08:54:58;64196.94;;;13.99;0.00
76496;BME280;65329;52.544;4.662;2022-12-22T08:57:25;64422.25;;;16.06;0.00
76496;BME280;65329;52.544;4.662;2022-12-22T08:59:52;64514.56;;;16.86;0.00
76496;BME280;65329;52.544;4.662;2022-12-22T09:02:18;64900.28;;;15.65;0.00
76496;BME280;65329;52.544;4.662;2022-12-22T09:04:45;64583.44;;;14.99;0.00
76496;BME280;65329;52.544;4.662;2022-12-22T09:07:12;64433.72;;;14.77;0.00
76496;BME280;65329;52.544;4.662;2022-12-22T09:09:39;64524.44;;;17.00;0.00
76496;BME280;65329;52.544;4.662;2022-12-22T09:12:06;64590.03;;;17.48;0.00
76496;BME280;65329;52.544;4.662;2022-12-22T09:14:32;64652.94;;;16.43;0.00
76496;BME280;65329;52.544;4.662;2022-12-22T09:16:59;64673.25;;;15.77;0.00
76496;BME280;65329;52.544;4.662;2022-12-22T09:19:26;64879.44;;;15.06;0.00
76496;BME280;65329;52.544;4.662;2022-12-22T09:21:53;64399.19;;;15.40;0.00
76496;BME280;65329;52.544;4.662;2022-12-22T09:24:20;64638.53;;;15.20;0.00
76496;BME280;65329;52.544;4.662;2022-12-22T09:26:47;64397.09;;;15.68;0.00
76496;BME280;65329;52.544;4.662;2022-12-22T09:29:13;64470.75;;;16.06;0.00
76496;BME280;65329;52.544;4.662;2022-12-22T09:31:41;64496.00;;;16.64;0.00
76496;BME280;65329;52.544;4.662;2022-12-22T09:34:08;64573.88;;;16.40;0.00
76496;BME280;65329;52.544;4.662;2022-12-22T09:36:43;64506.25;;;16.31;0.00
76496;BME280;65329;52.544;4.662;2022-12-22T09:39:10;65645.94;;;15.43;0.00
76496;BME280;65329;52.544;4.662;2022-12-22T09:41:46;66132.88;;;14.62;0.00
76496;BME280;65329;52.544;4.662;2022-12-22T09:44:32;66176.94;;;14.16;0.00
76496;BME280;65329;52.544;4.662;2022-12-22T09:47:02;65876.97;;;13.81;0.00
76496;BME280;65329;52.544;4.662;2022-12-22T09:49:30;65646.22;;;13.64;0.00
76496;BME280;65329;52.544;4.662;2022-12-22T09:51:59;65374.09;;;13.59;0.00
76496;BME280;65329;52.544;4.662;2022-12-22T09:54:27;65109.78;;;13.63;0.00
76496;BME280;65329;52.544;4.662;2022-12-22T09:56:55;64917.69;;;13.68;0.00
76496;BME280;65329;52.544;4.662;2022-12-22T09:59:25;64793.00;;;13.78;0.00
76496;BME280;65329;52.544;4.662;2022-12-22T10:02:14;64668.31;;;13.98;0.00
76496;BME280;65329;52.544;4.662;2022-12-22T10:07:31;64593.72;;;14.29;0.00
76496;BME280;65329;52.544;4.662;2022-12-22T10:10:28;64599.38;;;14.54;0.00
76496;BME280;65329;52.544;4.662;2022-12-22T10:12:58;64592.41;;;14.68;0.00
76496;BME280;65329;52.544;4.662;2022-12-22T10:15:26;64606.16;;;14.85;0.00
76496;BME280;65329;52.544;4.662;2022-12-22T10:18:26;64616.63;;;15.02;0.00
76496;BME280;65329;52.544;4.662;2022-12-22T10:21:11;64633.06;;;15.17;0.00
76496;BME280;65329;52.544;4.662;2022-12-22T10:23:45;64646.22;;;15.29;0.00
76496;BME280;65329;52.544;4.662;2022-12-22T10:26:20;64668.66;;;15.43;0.00
76496;BME280;65329;52.544;4.662;2022-12-22T10:29:05;64685.56;;;15.46;0.00
76496;BME280;65329;52.544;4.662;2022-12-22T10:31:34;64737.91;;;15.56;0.00
76496;BME280;65329;52.544;4.662;2022-12-22T10:34:16;64544.66;;;15.64;0.00
76496;BME280;65329;52.544;4.662;2022-12-22T10:36:47;64727.69;;;15.72;0.00
76496;BME280;65329;52.544;4.662;2022-12-22T10:39:20;64749.53;;;15.77;0.00
76496;BME280;65329;52.544;4.662;2022-12-22T10:41:49;64758.81;;;15.83;0.00
76496;BME280;65329;52.544;4.662;2022-12-22T10:44:23;64765.41;;;15.89;0.00
76496;BME280;65329;52.544;4.662;2022-12-22T10:46:53;64781.81;;;15.94;0.00
76496;BME280;65329;52.544;4.662;2022-12-22T10:49:24;64796.00;;;15.97;0.00
76496;BME280;65329;52.544;4.662;2022-12-22T10:54:25;64844.03;;;16.06;0.00
76496;BME280;65329;52.544;4.662;2022-12-22T10:57:20;64853.34;;;16.12;0.00
76496;BME280;65329;52.544;4.662;2022-12-22T10:59:55;64882.25;;;16.13;0.00
76496;BME280;65329;52.544;4.662;2022-12-22T11:05:09;64938.88;;;16.08;0.00
76496;BME280;65329;52.544;4.662;2022-12-22T11:07:38;64949.81;;;16.10;0.00
76496;BME280;65329;52.544;4.662;2022-12-22T11:10:40;64955.25;;;16.10;0.00
76496;BME280;65329;52.544;4.662;2022-12-22T11:13:27;66229.91;;;16.00;0.00
76496;BME280;65329;52.544;4.662;2022-12-22T11:16:12;65097.25;;;15.91;0.00
76496;BME280;65329;52.544;4.662;2022-12-22T11:18:56;65192.03;;;15.90;0.00
76496;BME280;65329;52.544;4.662;2022-12-22T11:21:45;65344.50;;;15.85;0.00
76496;BME280;65329;52.544;4.662;2022-12-22T11:24:26;65571.03;;;15.78;0.00
76496;BME280;65329;52.544;4.662;2022-12-22T11:32:56;67003.25;;;15.46;0.00
76496;BME280;65329;52.544;4.662;2022-12-22T11:41:01;68622.25;;;15.04;0.00
76496;BME280;65329;52.544;4.662;2022-12-22T11:56:31;67065.47;;;14.90;0.00
76496;BME280;65329;52.544;4.662;2022-12-22T11:59:29;67423.13;;;14.82;0.00
76496;BME280;65329;52.544;4.662;2022-12-22T12:04:47;69412.72;;;14.49;0.00
76496;BME280;65329;52.544;4.662;2022-12-22T12:07:24;69392.97;;;14.35;0.00
76496;BME280;65329;52.544;4.662;2022-12-22T12:15:46;69104.63;;;14.02;0.00
76496;BME280;65329;52.544;4.662;2022-12-22T12:24:58;68256.38;;;14.09;0.00
76496;BME280;65329;52.544;4.662;2022-12-22T12:27:53;69451.09;;;14.03;0.00
76496;BME280;65329;52.544;4.662;2022-12-22T12:30:22;66011.34;;;14.04;0.00
76496;BME280;65329;52.544;4.662;2022-12-22T12:33:12;67489.72;;;14.07;0.00
76496;BME280;65329;52.544;4.662;2022-12-22T12:38:39;69031.50;;;13.79;0.00
76496;BME280;65329;52.544;4.662;2022-12-22T12:41:36;69768.09;;;13.68;0.00
76496;BME280;65329;52.544;4.662;2022-12-22T12:44:11;69353.09;;;13.71;0.00
76496;BME280;65329;52.544;4.662;2022-12-22T12:52:01;69807.78;;;13.39;0.00
76496;BME280;65329;52.544;4.662;2022-12-22T12:56:57;69404.34;;;13.05;0.00
76496;BME280;65329;52.544;4.662;2022-12-22T13:02:37;69793.78;;;13.06;0.00
76496;BME280;65329;52.544;4.662;2022-12-22T13:08:07;69808.66;;;13.03;0.00
76496;BME280;65329;52.544;4.662;2022-12-22T13:10:38;69762.84;;;13.01;0.00
76496;BME280;65329;52.544;4.662;2022-12-22T13:13:09;69829.53;;;13.00;0.00
76496;BME280;65329;52.544;4.662;2022-12-22T13:15:41;69774.38;;;12.97;0.00
76496;BME280;65329;52.544;4.662;2022-12-22T13:18:34;69796.81;;;12.93;0.00
76496;BME280;65329;52.544;4.662;2022-12-22T13:21:15;69707.22;;;12.93;0.00
76496;BME280;65329;52.544;4.662;2022-12-22T13:24:27;69727.28;;;12.87;0.00
76496;BME280;65329;52.544;4.662;2022-12-22T13:27:01;69799.38;;;12.86;0.00
76496;BME280;65329;52.544;4.662;2022-12-22T13:29:42;69569.50;;;12.77;0.00
76496;BME280;65329;52.544;4.662;2022-12-22T13:32:15;69798.06;;;12.78;0.00
76496;BME280;65329;52.544;4.662;2022-12-22T13:35:14;69770.44;;;12.73;0.00
76496;BME280;65329;52.544;4.662;2022-12-22T13:38:01;69626.38;;;12.70;0.00
76496;BME280;65329;52.544;4.662;2022-12-22T13:40:30;69229.50;;;12.74;0.00
76496;BME280;65329;52.544;4.662;2022-12-22T13:43:03;69061.13;;;12.79;0.00
76496;BME280;65329;52.544;4.662;2022-12-22T13:45:39;68779.34;;;12.84;0.00
76496;BME280;65329;52.544;4.662;2022-12-22T13:48:12;68874.50;;;12.79;0.00
76496;BME280;65329;52.544;4.662;2022-12-22T13:51:01;69347.44;;;12.82;0.00
76496;BME280;65329;52.544;4.662;2022-12-22T13:53:36;69129.75;;;12.82;0.00
76496;BME280;65329;52.544;4.662;2022-12-22T13:56:27;69269.13;;;12.80;0.00
76496;BME280;65329;52.544;4.662;2022-12-22T13:59:00;69618.00;;;12.79;0.00
76496;BME280;65329;52.544;4.662;2022-12-22T14:01:28;69635.81;;;12.78;0.00
76496;BME280;65329;52.544;4.662;2022-12-22T14:04:00;69732.34;;;12.77;0.00
76496;BME280;65329;52.544;4.662;2022-12-22T14:09:17;69697.75;;;12.73;0.00
76496;BME280;65329;52.544;4.662;2022-12-22T14:17:00;69271.44;;;12.64;0.00
76496;BME280;65329;52.544;4.662;2022-12-22T14:19:32;69574.81;;;12.59;0.00
76496;BME280;65329;52.544;4.662;2022-12-22T14:22:07;69482.13;;;12.54;0.00
76496;BME280;65329;52.544;4.662;2022-12-22T14:24:47;69529.78;;;12.53;0.00
76496;BME280;65329;52.544;4.662;2022-12-22T14:27:32;69365.25;;;12.51;0.00
76496;BME280;65329;52.544;4.662;2022-12-22T14:30:04;69409.59;;;12.50;0.00
76496;BME280;65329;52.544;4.662;2022-12-22T14:35:13;69456.44;;;12.46;0.00
76496;BME280;65329;52.544;4.662;2022-12-22T14:37:41;69311.75;;;12.47;0.00
76496;BME280;65329;52.544;4.662;2022-12-22T14:40:26;69234.03;;;12.46;0.00
76496;BME280;65329;52.544;4.662;2022-12-22T14:42:55;68803.22;;;12.44;0.00
76496;BME280;65329;52.544;4.662;2022-12-22T14:45:23;68810.00;;;12.40;0.00
76496;BME280;65329;52.544;4.662;2022-12-22T14:47:52;68936.84;;;12.40;0.00
76496;BME280;65329;52.544;4.662;2022-12-22T14:50:29;68836.53;;;12.40;0.00
76496;BME280;65329;52.544;4.662;2022-12-22T14:52:57;68686.59;;;12.37;0.00
76496;BME280;65329;52.544;4.662;2022-12-22T14:57:55;68451.09;;;12.35;0.00
76496;BME280;65329;52.544;4.662;2022-12-22T15:03:24;68250.16;;;12.30;0.00
76496;BME280;65329;52.544;4.662;2022-12-22T15:05:52;68193.59;;;12.28;0.00
76496;BME280;65329;52.544;4.662;2022-12-22T15:08:39;68150.25;;;12.28;0.00
76496;BME280;65329;52.544;4.662;2022-12-22T15:11:16;68084.03;;;12.27;0.00
76496;BME280;65329;52.544;4.662;2022-12-22T15:13:46;68074.75;;;12.26;0.00
76496;BME280;65329;52.544;4.662;2022-12-22T15:16:17;68083.69;;;12.22;0.00
76496;BME280;65329;52.544;4.662;2022-12-22T15:18:45;68101.13;;;12.23;0.00
76496;BME280;65329;52.544;4.662;2022-12-22T15:21:14;68041.88;;;12.21;0.00
76496;BME280;65329;52.544;4.662;2022-12-22T15:23:42;68079.66;;;12.18;0.00
76496;BME280;65329;52.544;4.662;2022-12-22T15:26:10;68065.53;;;12.18;0.00
76496;BME280;65329;52.544;4.662;2022-12-22T15:28:37;68050.25;;;12.16;0.00
76496;BME280;65329;52.544;4.662;2022-12-22T15:31:12;68102.69;;;12.15;0.00
76496;BME280;65329;52.544;4.662;2022-12-22T15:33:40;68056.47;;;12.12;0.00